createdAt,value
2022-12-31T00:04:44.450Z,0.60
2022-12-31T00:09:47.135Z,0.70
2022-12-31T00:14:48.618Z,0.68
2022-12-31T00:19:50.326Z,0.88
2022-12-31T00:24:51.900Z,0.45
2022-12-31T00:29:53.444Z,0.60
2022-12-31T00:34:57.941Z,0.60
2022-12-31T00:39:59.598Z,0.50
2022-12-31T00:45:01.232Z,0.50
2022-12-31T00:50:03.087Z,0.50
2022-12-31T00:55:07.807Z,0.60
2022-12-31T01:00:10.142Z,0.40
2022-12-31T01:05:11.881Z,0.45
2022-12-31T01:10:13.475Z,0.50
2022-12-31T01:15:15.128Z,0.50
2022-12-31T01:20:16.829Z,1.30
2022-12-31T01:25:18.425Z,0.70
2022-12-31T01:30:20.017Z,0.50
2022-12-31T01:35:21.587Z,0.43
2022-12-31T01:40:25.437Z,0.50
2022-12-31T01:45:26.987Z,0.43
2022-12-31T01:50:35.765Z,0.60
2022-12-31T01:55:54.447Z,0.60
2022-12-31T02:00:58.953Z,0.50
2022-12-31T02:06:23.912Z,0.60
2022-12-31T02:11:30.057Z,0.60
2022-12-31T02:16:37.528Z,0.70
2022-12-31T02:21:54.555Z,0.70
2022-12-31T02:27:01.736Z,0.60
2022-12-31T02:32:12.479Z,0.50
2022-12-31T02:37:16.435Z,0.70
2022-12-31T02:42:18.122Z,0.50
2022-12-31T02:47:25.701Z,0.50
2022-12-31T02:52:36.260Z,0.60
2022-12-31T02:58:10.243Z,0.60
2022-12-31T03:03:12.015Z,0.70
2022-12-31T03:08:24.264Z,0.80
2022-12-31T03:13:26.468Z,0.90
2022-12-31T03:18:27.968Z,0.88
2022-12-31T03:23:32.877Z,0.85
2022-12-31T03:28:34.431Z,0.98
2022-12-31T03:33:38.661Z,0.73
2022-12-31T03:38:40.940Z,0.70
2022-12-31T03:43:42.421Z,0.73
2022-12-31T03:48:43.990Z,0.73
2022-12-31T03:53:45.535Z,0.90
2022-12-31T03:58:47.568Z,0.82
2022-12-31T04:03:49.095Z,0.90
2022-12-31T04:08:50.655Z,0.90
2022-12-31T04:13:52.239Z,1.10
2022-12-31T04:18:53.833Z,1.13
2022-12-31T04:23:55.491Z,1.00
2022-12-31T04:28:57.015Z,1.05
2022-12-31T04:33:58.549Z,1.30
2022-12-31T04:39:00.114Z,1.38
2022-12-31T04:44:01.753Z,1.30
2022-12-31T04:49:03.400Z,1.67
2022-12-31T04:54:05.399Z,2.67
2022-12-31T04:59:06.992Z,1.80
2022-12-31T05:04:08.603Z,1.38
2022-12-31T05:09:10.176Z,2.15
2022-12-31T05:14:11.726Z,1.55
2022-12-31T05:19:13.208Z,1.30
2022-12-31T05:24:14.713Z,1.40
2022-12-31T05:29:16.234Z,1.20
2022-12-31T05:34:17.948Z,1.50
2022-12-31T05:39:19.470Z,1.60
2022-12-31T05:44:21.000Z,1.58
2022-12-31T05:49:22.633Z,2.10
2022-12-31T05:54:24.976Z,1.60
2022-12-31T05:59:26.585Z,1.33
2022-12-31T06:04:28.123Z,1.60
2022-12-31T06:09:29.656Z,1.33
2022-12-31T06:14:31.834Z,1.50
2022-12-31T06:19:33.421Z,1.25
2022-12-31T06:24:34.970Z,1.38
2022-12-31T06:29:36.545Z,1.60
2022-12-31T06:34:38.965Z,1.75
2022-12-31T06:39:40.475Z,1.50
2022-12-31T06:44:42.008Z,1.77
2022-12-31T06:49:43.506Z,1.70
2022-12-31T06:54:45.340Z,2.15
2022-12-31T06:59:47.202Z,2.00
2022-12-31T07:05:31.784Z,1.70
2022-12-31T07:10:49.932Z,1.90
2022-12-31T07:16:06.796Z,2.00
2022-12-31T07:21:13.428Z,1.90
2022-12-31T07:26:21.453Z,1.83
2022-12-31T07:31:57.656Z,4.40
2022-12-31T07:37:19.788Z,4.22
2022-12-31T07:42:29.240Z,3.17
2022-12-31T07:47:30.992Z,2.60
2022-12-31T07:52:32.750Z,2.70
2022-12-31T07:57:42.439Z,2.10
2022-12-31T08:03:10.437Z,1.58
2022-12-31T08:08:21.324Z,2.10
2022-12-31T08:13:22.941Z,1.73
2022-12-31T08:18:24.636Z,1.80
2022-12-31T08:23:34.258Z,1.50
2022-12-31T08:28:57.698Z,1.70
2022-12-31T08:34:34.090Z,2.00
2022-12-31T08:39:47.628Z,1.70
2022-12-31T08:45:14.137Z,2.13
2022-12-31T08:50:17.919Z,1.73
2022-12-31T08:55:19.735Z,1.70
2022-12-31T09:00:21.913Z,1.90
2022-12-31T09:05:48.966Z,1.35
2022-12-31T09:11:05.842Z,1.45
2022-12-31T09:16:18.966Z,2.15
2022-12-31T09:21:20.657Z,1.70
2022-12-31T09:26:37.013Z,1.55
2022-12-31T09:31:47.547Z,1.40
2022-12-31T09:36:56.126Z,2.08
2022-12-31T09:42:12.748Z,2.00
2022-12-31T09:47:46.678Z,2.00
2022-12-31T09:52:50.995Z,1.60
2022-12-31T09:58:07.100Z,2.42
2022-12-31T10:03:51.965Z,1.80
2022-12-31T10:09:08.263Z,1.70
2022-12-31T10:14:47.420Z,1.70
2022-12-31T10:20:19.838Z,1.67
2022-12-31T10:25:58.872Z,1.67
2022-12-31T10:31:28.146Z,1.55
2022-12-31T10:36:52.475Z,2.00
2022-12-31T10:42:15.711Z,1.60
2022-12-31T10:47:44.735Z,1.10
2022-12-31T10:52:49.156Z,1.50
2022-12-31T10:58:32.162Z,1.48
2022-12-31T11:03:45.333Z,1.10
2022-12-31T11:09:27.417Z,1.40
2022-12-31T11:14:43.074Z,1.15
2022-12-31T11:20:22.527Z,1.48
2022-12-31T11:25:42.257Z,1.20
2022-12-31T11:30:49.749Z,1.13
2022-12-31T11:36:12.364Z,1.00
2022-12-31T11:41:41.659Z,1.00
2022-12-31T11:46:50.278Z,1.02
2022-12-31T11:52:07.116Z,1.10
2022-12-31T11:57:31.592Z,1.45
2022-12-31T12:02:36.898Z,1.63
2022-12-31T12:07:38.706Z,1.10
2022-12-31T12:12:41.974Z,0.90
2022-12-31T12:17:43.694Z,1.02
2022-12-31T12:22:53.777Z,1.38
2022-12-31T12:27:55.319Z,1.40
2022-12-31T12:32:59.571Z,1.88
2022-12-31T12:38:06.978Z,1.48
2022-12-31T12:43:23.163Z,1.00
2022-12-31T12:48:46.321Z,1.33
2022-12-31T12:53:50.464Z,1.20
2022-12-31T12:59:10.248Z,1.08
2022-12-31T13:04:34.363Z,1.02
2022-12-31T13:09:48.629Z,0.90
2022-12-31T13:15:03.435Z,0.90
2022-12-31T13:20:37.100Z,1.10
2022-12-31T13:25:47.113Z,0.95
2022-12-31T13:30:54.235Z,0.93
2022-12-31T13:35:59.801Z,0.80
2022-12-31T13:41:08.617Z,1.10
2022-12-31T13:46:19.017Z,0.88
2022-12-31T13:51:45.466Z,1.00
2022-12-31T13:56:50.103Z,1.10
2022-12-31T14:01:58.865Z,1.15
2022-12-31T14:07:06.543Z,1.30
2022-12-31T14:12:28.002Z,1.25
2022-12-31T14:17:42.470Z,1.17
2022-12-31T14:23:13.435Z,1.10
2022-12-31T14:28:24.336Z,1.02
2022-12-31T14:33:51.212Z,1.02
2022-12-31T14:39:14.434Z,1.23
2022-12-31T14:44:31.663Z,0.90
2022-12-31T14:49:54.095Z,1.20
2022-12-31T14:54:59.578Z,1.58
2022-12-31T15:11:11.947Z,1.30
